createdAt,value
2022-11-29T00:00:35.362Z,8.95
2022-11-29T00:03:26.121Z,9.77
2022-11-29T00:10:23.519Z,8.20
2022-11-29T00:24:02.233Z,12.38
2022-11-29T00:26:37.524Z,12.93
2022-11-29T00:29:04.723Z,15.88
2022-11-29T00:31:59.313Z,14.18
2022-11-29T00:54:32.187Z,6.82
2022-11-29T00:57:20.990Z,8.00
2022-11-29T01:00:12.338Z,6.53
2022-11-29T01:03:02.078Z,4.95
2022-11-29T01:05:50.913Z,5.13
2022-11-29T01:11:42.371Z,5.47
2022-11-29T01:14:32.464Z,5.70
2022-11-29T01:17:19.417Z,6.30
2022-11-29T01:19:50.590Z,6.88
2022-11-29T01:22:18.826Z,5.45
2022-11-29T01:24:46.065Z,6.40
2022-11-29T01:27:13.144Z,5.57
2022-11-29T01:29:39.957Z,6.28
2022-11-29T01:32:06.823Z,8.13
2022-11-29T01:34:33.550Z,6.78
2022-11-29T01:37:00.723Z,11.40
2022-11-29T01:39:27.532Z,14.45
2022-11-29T01:41:55.186Z,11.85
2022-11-29T01:44:22.049Z,11.23
2022-11-29T01:46:50.820Z,9.85
2022-11-29T01:49:39.431Z,10.70
2022-11-29T01:52:11.855Z,11.70
2022-11-29T01:54:43.732Z,11.93
2022-11-29T01:57:10.948Z,10.05
2022-11-29T01:59:47.333Z,11.98
2022-11-29T02:02:18.402Z,11.38
2022-11-29T02:04:47.458Z,11.90
2022-11-29T02:07:14.759Z,10.50
2022-11-29T02:09:41.904Z,12.88
2022-11-29T02:12:35.439Z,9.02
2022-11-29T02:15:32.414Z,8.98
2022-11-29T02:18:15.796Z,10.35
2022-11-29T02:20:49.071Z,9.25
2022-11-29T02:23:51.732Z,9.13
2022-11-29T02:26:48.897Z,7.80
2022-11-29T02:29:46.605Z,10.63
2022-11-29T02:32:49.945Z,9.77
2022-11-29T02:35:44.381Z,9.38
2022-11-29T02:38:36.373Z,8.38
2022-11-29T02:41:25.141Z,9.68
2022-11-29T02:43:58.132Z,10.13
2022-11-29T02:46:28.288Z,10.38
2022-11-29T02:49:07.325Z,8.75
2022-11-29T02:51:45.426Z,10.00
2022-11-29T02:54:45.443Z,8.60
2022-11-29T02:57:29.823Z,9.68
2022-11-29T03:00:22.550Z,10.75
2022-11-29T03:02:52.428Z,9.95
2022-11-29T03:05:25.669Z,9.50
2022-11-29T03:08:16.615Z,5.97
2022-11-29T03:11:30.891Z,7.93
2022-11-29T03:14:16.774Z,8.52
2022-11-29T03:16:59.210Z,10.93
2022-11-29T03:19:44.456Z,10.70
2022-11-29T03:22:31.819Z,7.80
2022-11-29T03:24:58.982Z,5.72
2022-11-29T03:27:51.520Z,7.22
2022-11-29T03:30:19.381Z,5.50
2022-11-29T03:33:13.187Z,6.97
2022-11-29T03:35:44.278Z,5.30
2022-11-29T03:38:23.200Z,4.35
2022-11-29T03:41:18.386Z,5.43
2022-11-29T03:43:57.498Z,6.00
2022-11-29T03:46:55.170Z,7.93
2022-11-29T03:49:46.239Z,10.50
2022-11-29T03:52:42.923Z,12.10
2022-11-29T03:55:32.196Z,13.50
2022-11-29T03:58:17.837Z,13.57
2022-11-29T04:00:47.752Z,12.15
2022-11-29T04:03:29.964Z,12.30
2022-11-29T04:06:26.866Z,13.73
2022-11-29T04:09:15.722Z,13.80
2022-11-29T04:12:04.198Z,18.88
2022-11-29T04:14:54.858Z,13.48
2022-11-29T04:17:51.713Z,21.45
2022-11-29T04:20:43.084Z,12.63
2022-11-29T04:23:34.713Z,16.98
2022-11-29T04:26:03.240Z,16.30
2022-11-29T04:28:45.446Z,15.43
2022-11-29T04:31:33.858Z,13.70
2022-11-29T04:34:12.878Z,15.05
2022-11-29T04:37:10.877Z,13.00
2022-11-29T04:40:03.508Z,12.65
2022-11-29T04:42:36.652Z,12.70
2022-11-29T04:45:06.005Z,14.40
2022-11-29T04:47:59.620Z,12.48
2022-11-29T04:50:45.029Z,12.45
2022-11-29T04:53:54.540Z,16.02
2022-11-29T04:56:53.599Z,11.35
2022-11-29T05:03:42.161Z,12.80
2022-11-29T05:07:00.179Z,11.10
2022-11-29T06:42:11.297Z,48.35
2022-11-29T07:06:44.109Z,27.95
2022-11-29T07:10:00.474Z,30.08
2022-11-29T10:25:30.554Z,16.38
2022-11-29T15:55:36.120Z,14.00
2022-11-29T15:58:08.778Z,13.55
2022-11-29T16:00:40.099Z,13.40
2022-11-29T16:03:17.222Z,14.73
2022-11-29T16:05:51.976Z,11.30
2022-11-29T16:11:50.834Z,8.88
2022-11-29T16:14:22.488Z,8.63
2022-11-29T16:16:55.477Z,12.18
2022-11-29T16:19:28.322Z,10.25
2022-11-29T16:22:23.444Z,13.45
2022-11-29T16:25:16.050Z,11.43
2022-11-29T16:28:14.461Z,15.80
2022-11-29T16:31:02.177Z,15.10
2022-11-29T16:33:49.324Z,16.92
2022-11-29T16:36:42.457Z,20.25
2022-11-29T16:39:59.357Z,19.50
2022-11-29T16:42:49.250Z,23.42
2022-11-29T16:46:06.516Z,21.10
2022-11-29T16:48:59.381Z,16.90
2022-11-29T16:52:05.804Z,16.65
2022-11-29T16:54:58.858Z,17.38
2022-11-29T16:58:11.361Z,21.65
2022-11-29T17:04:25.126Z,17.02
2022-11-29T17:06:56.785Z,13.85
2022-11-29T17:09:27.112Z,14.48
2022-11-29T17:11:55.200Z,18.48
2022-11-29T17:14:22.406Z,15.00
2022-11-29T17:16:50.642Z,10.95
2022-11-29T17:19:22.344Z,11.68
2022-11-29T17:21:50.093Z,25.95
2022-11-29T17:24:19.873Z,28.50
2022-11-29T17:26:50.465Z,34.63
2022-11-29T17:29:18.404Z,15.13
2022-11-29T17:31:50.781Z,17.10
2022-11-29T17:34:18.035Z,16.83
2022-11-29T17:36:45.483Z,19.30
2022-11-29T17:39:12.981Z,21.85
2022-11-29T17:41:40.157Z,17.05
2022-11-29T17:44:07.529Z,17.25
2022-11-29T17:46:56.753Z,14.00
2022-11-29T17:52:24.794Z,17.60
2022-11-29T18:34:22.318Z,19.88
2022-11-29T18:36:49.890Z,19.63
2022-11-29T18:39:31.072Z,20.13
2022-11-29T18:41:57.856Z,17.02
2022-11-29T18:44:29.739Z,16.63
2022-11-29T18:46:57.386Z,13.60
2022-11-29T18:49:44.250Z,14.70
2022-11-29T18:52:35.307Z,16.02
2022-11-29T18:55:36.634Z,14.43
2022-11-29T18:58:23.779Z,16.73
2022-11-29T19:01:38.303Z,11.38
2022-11-29T19:04:39.684Z,16.35
2022-11-29T19:07:26.873Z,9.68
2022-11-29T19:13:23.197Z,8.63
2022-11-29T19:15:56.421Z,15.82
2022-11-29T19:18:25.158Z,13.60
2022-11-29T21:17:05.694Z,11.48
